sensor_id;sensor_type;location;lat;lon;timestamp;P1;durP1;ratioP1;P2;durP2;ratioP2
2622;SDS011;1321;48.690;9.022;2023-09-18T00:02:16;15.07;;;14.47;;
2622;SDS011;1321;48.690;9.022;2023-09-18T00:04:44;14.53;;;14.03;;
2622;SDS011;1321;48.690;9.022;2023-09-18T00:07:12;14.23;;;13.80;;
2622;SDS011;1321;48.690;9.022;2023-09-18T00:09:40;14.63;;;14.03;;
2622;SDS011;1321;48.690;9.022;2023-09-18T00:12:08;14.00;;;13.50;;
2622;SDS011;1321;48.690;9.022;2023-09-18T00:14:39;14.20;;;13.80;;
2622;SDS011;1321;48.690;9.022;2023-09-18T00:17:07;14.57;;;14.03;;
2622;SDS011;1321;48.690;9.022;2023-09-18T00:19:36;14.30;;;13.70;;
2622;SDS011;1321;48.690;9.022;2023-09-18T00:22:04;14.23;;;13.63;;
2622;SDS011;1321;48.690;9.022;2023-09-18T00:24:32;14.40;;;13.80;;
2622;SDS011;1321;48.690;9.022;2023-09-18T00:27:01;14.57;;;14.07;;
2622;SDS011;1321;48.690;9.022;2023-09-18T00:29:29;14.37;;;13.87;;
2622;SDS011;1321;48.690;9.022;2023-09-18T00:31:58;15.60;;;14.90;;
2622;SDS011;1321;48.690;9.022;2023-09-18T00:34:27;14.30;;;13.80;;
2622;SDS011;1321;48.690;9.022;2023-09-18T00:36:58;14.00;;;13.50;;
2622;SDS011;1321;48.690;9.022;2023-09-18T00:39:26;14.80;;;14.20;;
2622;SDS011;1321;48.690;9.022;2023-09-18T00:41:54;14.10;;;13.60;;
2622;SDS011;1321;48.690;9.022;2023-09-18T00:44:24;13.47;;;13.07;;
2622;SDS011;1321;48.690;9.022;2023-09-18T00:46:53;14.50;;;13.90;;
2622;SDS011;1321;48.690;9.022;2023-09-18T00:49:23;14.60;;;14.00;;
2622;SDS011;1321;48.690;9.022;2023-09-18T00:51:52;14.97;;;13.83;;
2622;SDS011;1321;48.690;9.022;2023-09-18T00:54:21;14.20;;;13.70;;
2622;SDS011;1321;48.690;9.022;2023-09-18T00:56:50;14.20;;;13.60;;
2622;SDS011;1321;48.690;9.022;2023-09-18T00:59:21;15.17;;;14.30;;
2622;SDS011;1321;48.690;9.022;2023-09-18T01:01:49;14.50;;;13.90;;
2622;SDS011;1321;48.690;9.022;2023-09-18T01:04:18;14.20;;;13.60;;
2622;SDS011;1321;48.690;9.022;2023-09-18T01:06:48;14.90;;;14.40;;
2622;SDS011;1321;48.690;9.022;2023-09-18T01:09:16;14.27;;;13.57;;
2622;SDS011;1321;48.690;9.022;2023-09-18T01:11:48;14.40;;;13.83;;
2622;SDS011;1321;48.690;9.022;2023-09-18T01:14:20;14.87;;;14.27;;
2622;SDS011;1321;48.690;9.022;2023-09-18T01:16:56;14.10;;;13.63;;
2622;SDS011;1321;48.690;9.022;2023-09-18T01:19:35;14.70;;;13.80;;
2622;SDS011;1321;48.690;9.022;2023-09-18T01:22:06;14.70;;;14.13;;
2622;SDS011;1321;48.690;9.022;2023-09-18T01:24:37;14.17;;;13.77;;
2622;SDS011;1321;48.690;9.022;2023-09-18T01:27:07;14.30;;;13.70;;
2622;SDS011;1321;48.690;9.022;2023-09-18T01:29:36;14.57;;;14.00;;
2622;SDS011;1321;48.690;9.022;2023-09-18T01:32:04;14.40;;;13.90;;
2622;SDS011;1321;48.690;9.022;2023-09-18T01:34:34;15.23;;;14.63;;
2622;SDS011;1321;48.690;9.022;2023-09-18T01:37:03;14.43;;;13.93;;
2622;SDS011;1321;48.690;9.022;2023-09-18T01:39:33;14.83;;;14.23;;
2622;SDS011;1321;48.690;9.022;2023-09-18T01:42:04;14.67;;;14.07;;
2622;SDS011;1321;48.690;9.022;2023-09-18T01:44:36;14.77;;;14.20;;
2622;SDS011;1321;48.690;9.022;2023-09-18T01:47:06;14.23;;;13.63;;
2622;SDS011;1321;48.690;9.022;2023-09-18T01:49:36;15.13;;;14.47;;
2622;SDS011;1321;48.690;9.022;2023-09-18T01:52:07;14.67;;;14.07;;
2622;SDS011;1321;48.690;9.022;2023-09-18T01:54:36;14.90;;;14.27;;
2622;SDS011;1321;48.690;9.022;2023-09-18T01:57:06;15.10;;;14.40;;
2622;SDS011;1321;48.690;9.022;2023-09-18T01:59:34;14.87;;;14.03;;
2622;SDS011;1321;48.690;9.022;2023-09-18T02:02:04;15.27;;;14.17;;
2622;SDS011;1321;48.690;9.022;2023-09-18T02:04:39;15.67;;;14.60;;
2622;SDS011;1321;48.690;9.022;2023-09-18T02:07:27;14.63;;;13.77;;
2622;SDS011;1321;48.690;9.022;2023-09-18T02:09:55;15.30;;;14.20;;
2622;SDS011;1321;48.690;9.022;2023-09-18T02:12:25;15.00;;;14.10;;
2622;SDS011;1321;48.690;9.022;2023-09-18T02:14:53;14.93;;;13.87;;
2622;SDS011;1321;48.690;9.022;2023-09-18T02:17:23;14.40;;;13.53;;
2622;SDS011;1321;48.690;9.022;2023-09-18T02:19:52;14.33;;;13.57;;
2622;SDS011;1321;48.690;9.022;2023-09-18T02:22:20;15.00;;;14.13;;
2622;SDS011;1321;48.690;9.022;2023-09-18T02:24:48;14.50;;;13.60;;
2622;SDS011;1321;48.690;9.022;2023-09-18T02:27:16;14.97;;;14.20;;
2622;SDS011;1321;48.690;9.022;2023-09-18T02:29:46;15.13;;;13.90;;
2622;SDS011;1321;48.690;9.022;2023-09-18T02:32:16;17.83;;;14.90;;
2622;SDS011;1321;48.690;9.022;2023-09-18T02:34:45;15.10;;;14.00;;
2622;SDS011;1321;48.690;9.022;2023-09-18T02:37:13;15.07;;;14.07;;
2622;SDS011;1321;48.690;9.022;2023-09-18T02:39:42;15.20;;;14.20;;
2622;SDS011;1321;48.690;9.022;2023-09-18T02:42:10;15.70;;;14.60;;
2622;SDS011;1321;48.690;9.022;2023-09-18T02:44:38;15.80;;;14.80;;
2622;SDS011;1321;48.690;9.022;2023-09-18T02:47:08;15.77;;;14.87;;
2622;SDS011;1321;48.690;9.022;2023-09-18T02:49:36;15.30;;;14.40;;
2622;SDS011;1321;48.690;9.022;2023-09-18T02:52:04;15.33;;;14.60;;
2622;SDS011;1321;48.690;9.022;2023-09-18T02:54:32;15.00;;;14.23;;
2622;SDS011;1321;48.690;9.022;2023-09-18T02:57:00;15.40;;;14.50;;
2622;SDS011;1321;48.690;9.022;2023-09-18T02:59:29;16.40;;;15.50;;
2622;SDS011;1321;48.690;9.022;2023-09-18T03:01:57;14.73;;;13.90;;
2622;SDS011;1321;48.690;9.022;2023-09-18T03:04:27;14.97;;;14.20;;
2622;SDS011;1321;48.690;9.022;2023-09-18T03:06:57;15.47;;;14.50;;
2622;SDS011;1321;48.690;9.022;2023-09-18T03:09:25;15.30;;;14.67;;
2622;SDS011;1321;48.690;9.022;2023-09-18T03:11:53;15.83;;;14.93;;
2622;SDS011;1321;48.690;9.022;2023-09-18T03:14:21;15.40;;;14.60;;
2622;SDS011;1321;48.690;9.022;2023-09-18T03:16:49;15.83;;;14.97;;
2622;SDS011;1321;48.690;9.022;2023-09-18T03:19:17;15.93;;;15.03;;
2622;SDS011;1321;48.690;9.022;2023-09-18T03:21:46;15.87;;;15.13;;
2622;SDS011;1321;48.690;9.022;2023-09-18T03:24:15;15.60;;;14.90;;
2622;SDS011;1321;48.690;9.022;2023-09-18T03:26:43;15.30;;;14.57;;
2622;SDS011;1321;48.690;9.022;2023-09-18T03:29:11;15.20;;;14.40;;
2622;SDS011;1321;48.690;9.022;2023-09-18T03:31:39;15.40;;;14.70;;
2622;SDS011;1321;48.690;9.022;2023-09-18T03:34:07;15.43;;;14.53;;
2622;SDS011;1321;48.690;9.022;2023-09-18T03:36:35;16.10;;;14.67;;
2622;SDS011;1321;48.690;9.022;2023-09-18T03:39:06;15.97;;;14.90;;
2622;SDS011;1321;48.690;9.022;2023-09-18T03:41:36;15.80;;;15.10;;
2622;SDS011;1321;48.690;9.022;2023-09-18T03:44:04;16.00;;;15.10;;
2622;SDS011;1321;48.690;9.022;2023-09-18T03:46:32;15.93;;;15.07;;
2622;SDS011;1321;48.690;9.022;2023-09-18T03:49:01;16.07;;;14.93;;
2622;SDS011;1321;48.690;9.022;2023-09-18T03:51:29;16.23;;;15.23;;
2622;SDS011;1321;48.690;9.022;2023-09-18T03:53:57;16.20;;;15.00;;
2622;SDS011;1321;48.690;9.022;2023-09-18T03:56:27;15.67;;;14.70;;
2622;SDS011;1321;48.690;9.022;2023-09-18T03:58:55;15.63;;;14.80;;
2622;SDS011;1321;48.690;9.022;2023-09-18T04:01:25;16.47;;;15.37;;
2622;SDS011;1321;48.690;9.022;2023-09-18T04:03:53;15.20;;;14.47;;
2622;SDS011;1321;48.690;9.022;2023-09-18T04:06:21;15.33;;;14.43;;
2622;SDS011;1321;48.690;9.022;2023-09-18T04:08:50;15.40;;;14.50;;
2622;SDS011;1321;48.690;9.022;2023-09-18T04:11:19;16.63;;;15.53;;
2622;SDS011;1321;48.690;9.022;2023-09-18T04:13:54;16.13;;;15.07;;
2622;SDS011;1321;48.690;9.022;2023-09-18T04:16:22;16.47;;;15.67;;
2622;SDS011;1321;48.690;9.022;2023-09-18T04:18:50;16.50;;;15.70;;
2622;SDS011;1321;48.690;9.022;2023-09-18T04:21:19;16.60;;;15.70;;
2622;SDS011;1321;48.690;9.022;2023-09-18T04:23:47;16.10;;;15.27;;
2622;SDS011;1321;48.690;9.022;2023-09-18T04:26:21;16.43;;;15.40;;
2622;SDS011;1321;48.690;9.022;2023-09-18T04:28:50;15.97;;;15.07;;
2622;SDS011;1321;48.690;9.022;2023-09-18T04:31:20;16.17;;;15.33;;
2622;SDS011;1321;48.690;9.022;2023-09-18T04:33:51;15.93;;;15.13;;
2622;SDS011;1321;48.690;9.022;2023-09-18T04:36:20;16.40;;;15.40;;
2622;SDS011;1321;48.690;9.022;2023-09-18T04:38:48;16.77;;;15.77;;
2622;SDS011;1321;48.690;9.022;2023-09-18T04:41:17;16.33;;;15.43;;
2622;SDS011;1321;48.690;9.022;2023-09-18T04:43:45;16.23;;;15.20;;
2622;SDS011;1321;48.690;9.022;2023-09-18T04:46:13;15.83;;;15.13;;
2622;SDS011;1321;48.690;9.022;2023-09-18T04:48:42;16.07;;;15.07;;
2622;SDS011;1321;48.690;9.022;2023-09-18T04:51:10;16.33;;;15.53;;
2622;SDS011;1321;48.690;9.022;2023-09-18T04:53:39;16.10;;;15.40;;
2622;SDS011;1321;48.690;9.022;2023-09-18T04:56:07;15.73;;;15.13;;
2622;SDS011;1321;48.690;9.022;2023-09-18T04:58:37;16.93;;;16.23;;
2622;SDS011;1321;48.690;9.022;2023-09-18T05:01:05;17.20;;;16.17;;
2622;SDS011;1321;48.690;9.022;2023-09-18T05:03:34;15.93;;;15.17;;
2622;SDS011;1321;48.690;9.022;2023-09-18T05:06:07;16.43;;;15.73;;
2622;SDS011;1321;48.690;9.022;2023-09-18T05:08:35;15.90;;;15.30;;
2622;SDS011;1321;48.690;9.022;2023-09-18T05:11:03;16.30;;;15.70;;
2622;SDS011;1321;48.690;9.022;2023-09-18T05:13:31;15.97;;;15.30;;
2622;SDS011;1321;48.690;9.022;2023-09-18T05:15:59;16.93;;;16.07;;
2622;SDS011;1321;48.690;9.022;2023-09-18T05:18:29;16.70;;;15.80;;
2622;SDS011;1321;48.690;9.022;2023-09-18T05:20:58;16.30;;;15.60;;
2622;SDS011;1321;48.690;9.022;2023-09-18T05:23:28;16.63;;;15.67;;
2622;SDS011;1321;48.690;9.022;2023-09-18T05:25:56;15.80;;;15.10;;
2622;SDS011;1321;48.690;9.022;2023-09-18T05:28:24;16.10;;;15.40;;
2622;SDS011;1321;48.690;9.022;2023-09-18T05:30:52;16.30;;;15.47;;
2622;SDS011;1321;48.690;9.022;2023-09-18T05:33:20;16.37;;;15.50;;
2622;SDS011;1321;48.690;9.022;2023-09-18T05:35:48;15.70;;;15.13;;
2622;SDS011;1321;48.690;9.022;2023-09-18T05:38:17;15.57;;;14.90;;
2622;SDS011;1321;48.690;9.022;2023-09-18T05:40:47;15.80;;;15.10;;
2622;SDS011;1321;48.690;9.022;2023-09-18T05:43:15;16.17;;;15.50;;
2622;SDS011;1321;48.690;9.022;2023-09-18T05:45:44;16.10;;;15.23;;
2622;SDS011;1321;48.690;9.022;2023-09-18T05:48:12;16.17;;;15.50;;
2622;SDS011;1321;48.690;9.022;2023-09-18T05:50:41;15.77;;;15.17;;
2622;SDS011;1321;48.690;9.022;2023-09-18T05:53:09;16.33;;;15.60;;
2622;SDS011;1321;48.690;9.022;2023-09-18T05:55:38;16.40;;;15.60;;
2622;SDS011;1321;48.690;9.022;2023-09-18T05:58:07;16.60;;;15.40;;
2622;SDS011;1321;48.690;9.022;2023-09-18T06:00:35;15.03;;;14.43;;
2622;SDS011;1321;48.690;9.022;2023-09-18T06:03:04;16.50;;;15.60;;
2622;SDS011;1321;48.690;9.022;2023-09-18T06:05:33;15.60;;;14.90;;
2622;SDS011;1321;48.690;9.022;2023-09-18T06:08:02;15.50;;;15.00;;
2622;SDS011;1321;48.690;9.022;2023-09-18T06:10:34;15.57;;;14.90;;
2622;SDS011;1321;48.690;9.022;2023-09-18T06:13:04;15.93;;;15.10;;
2622;SDS011;1321;48.690;9.022;2023-09-18T06:15:34;16.00;;;15.30;;
2622;SDS011;1321;48.690;9.022;2023-09-18T06:18:04;16.07;;;15.07;;
2622;SDS011;1321;48.690;9.022;2023-09-18T06:20:33;16.57;;;15.50;;
2622;SDS011;1321;48.690;9.022;2023-09-18T06:23:01;15.97;;;15.17;;
2622;SDS011;1321;48.690;9.022;2023-09-18T06:25:31;15.17;;;14.60;;
2622;SDS011;1321;48.690;9.022;2023-09-18T06:27:59;15.83;;;15.03;;
2622;SDS011;1321;48.690;9.022;2023-09-18T06:30:30;15.67;;;15.00;;
2622;SDS011;1321;48.690;9.022;2023-09-18T06:33:01;15.50;;;14.90;;
2622;SDS011;1321;48.690;9.022;2023-09-18T06:35:32;16.23;;;15.50;;
2622;SDS011;1321;48.690;9.022;2023-09-18T06:38:00;16.80;;;15.80;;
2622;SDS011;1321;48.690;9.022;2023-09-18T06:40:29;15.77;;;15.07;;
2622;SDS011;1321;48.690;9.022;2023-09-18T06:42:58;16.10;;;15.30;;
2622;SDS011;1321;48.690;9.022;2023-09-18T06:45:30;15.70;;;15.00;;
2622;SDS011;1321;48.690;9.022;2023-09-18T06:48:03;16.43;;;15.53;;
2622;SDS011;1321;48.690;9.022;2023-09-18T06:50:32;15.27;;;14.63;;
2622;SDS011;1321;48.690;9.022;2023-09-18T06:53:02;16.10;;;15.10;;
2622;SDS011;1321;48.690;9.022;2023-09-18T06:55:30;16.13;;;15.20;;
2622;SDS011;1321;48.690;9.022;2023-09-18T06:57:59;15.30;;;14.90;;
2622;SDS011;1321;48.690;9.022;2023-09-18T07:00:28;15.83;;;15.20;;
2622;SDS011;1321;48.690;9.022;2023-09-18T07:02:56;16.03;;;15.33;;
2622;SDS011;1321;48.690;9.022;2023-09-18T07:05:26;15.80;;;15.20;;
2622;SDS011;1321;48.690;9.022;2023-09-18T07:07:54;16.00;;;15.30;;
2622;SDS011;1321;48.690;9.022;2023-09-18T07:10:23;15.80;;;15.10;;
2622;SDS011;1321;48.690;9.022;2023-09-18T07:12:52;15.97;;;15.17;;
2622;SDS011;1321;48.690;9.022;2023-09-18T07:15:20;15.80;;;15.10;;
2622;SDS011;1321;48.690;9.022;2023-09-18T07:17:48;15.40;;;14.90;;
2622;SDS011;1321;48.690;9.022;2023-09-18T07:20:17;15.80;;;15.20;;
2622;SDS011;1321;48.690;9.022;2023-09-18T07:22:47;16.33;;;15.63;;
2622;SDS011;1321;48.690;9.022;2023-09-18T07:25:16;16.43;;;15.63;;
2622;SDS011;1321;48.690;9.022;2023-09-18T07:27:45;15.70;;;15.20;;
2622;SDS011;1321;48.690;9.022;2023-09-18T07:30:14;15.80;;;15.00;;
2622;SDS011;1321;48.690;9.022;2023-09-18T07:32:44;15.40;;;14.80;;
2622;SDS011;1321;48.690;9.022;2023-09-18T07:35:13;15.37;;;14.87;;
2622;SDS011;1321;48.690;9.022;2023-09-18T07:37:42;16.20;;;15.50;;
2622;SDS011;1321;48.690;9.022;2023-09-18T07:40:14;15.93;;;15.30;;
2622;SDS011;1321;48.690;9.022;2023-09-18T07:42:43;15.97;;;15.37;;
2622;SDS011;1321;48.690;9.022;2023-09-18T07:45:12;16.13;;;15.43;;
2622;SDS011;1321;48.690;9.022;2023-09-18T07:47:40;15.93;;;15.23;;
2622;SDS011;1321;48.690;9.022;2023-09-18T07:50:08;15.10;;;14.60;;
2622;SDS011;1321;48.690;9.022;2023-09-18T07:52:37;16.10;;;15.60;;
2622;SDS011;1321;48.690;9.022;2023-09-18T07:55:06;16.20;;;15.30;;
2622;SDS011;1321;48.690;9.022;2023-09-18T07:57:37;15.60;;;15.10;;
2622;SDS011;1321;48.690;9.022;2023-09-18T08:00:07;15.83;;;15.23;;
2622;SDS011;1321;48.690;9.022;2023-09-18T08:02:39;15.37;;;14.77;;
2622;SDS011;1321;48.690;9.022;2023-09-18T08:05:09;15.50;;;14.90;;
2622;SDS011;1321;48.690;9.022;2023-09-18T08:07:37;15.47;;;14.87;;
2622;SDS011;1321;48.690;9.022;2023-09-18T08:10:09;14.87;;;14.43;;
2622;SDS011;1321;48.690;9.022;2023-09-18T08:12:40;15.50;;;14.97;;
2622;SDS011;1321;48.690;9.022;2023-09-18T08:15:08;15.10;;;14.70;;
2622;SDS011;1321;48.690;9.022;2023-09-18T08:17:37;15.57;;;15.07;;
2622;SDS011;1321;48.690;9.022;2023-09-18T08:20:08;14.90;;;14.33;;
2622;SDS011;1321;48.690;9.022;2023-09-18T08:22:40;15.50;;;14.90;;
2622;SDS011;1321;48.690;9.022;2023-09-18T08:25:08;15.27;;;14.80;;
2622;SDS011;1321;48.690;9.022;2023-09-18T08:27:37;15.43;;;15.00;;
2622;SDS011;1321;48.690;9.022;2023-09-18T08:30:10;15.93;;;15.30;;
2622;SDS011;1321;48.690;9.022;2023-09-18T08:32:38;16.60;;;15.80;;
2622;SDS011;1321;48.690;9.022;2023-09-18T08:35:07;15.60;;;15.00;;
2622;SDS011;1321;48.690;9.022;2023-09-18T08:37:36;16.30;;;15.60;;
2622;SDS011;1321;48.690;9.022;2023-09-18T08:40:05;16.13;;;15.63;;
2622;SDS011;1321;48.690;9.022;2023-09-18T08:42:38;15.77;;;15.13;;
2622;SDS011;1321;48.690;9.022;2023-09-18T08:45:14;16.00;;;15.40;;
2622;SDS011;1321;48.690;9.022;2023-09-18T08:47:46;16.73;;;15.77;;
2622;SDS011;1321;48.690;9.022;2023-09-18T08:50:15;16.07;;;15.57;;
2622;SDS011;1321;48.690;9.022;2023-09-18T08:52:45;16.00;;;15.30;;
2622;SDS011;1321;48.690;9.022;2023-09-18T08:55:14;15.80;;;15.20;;
2622;SDS011;1321;48.690;9.022;2023-09-18T08:57:43;16.33;;;15.63;;
2622;SDS011;1321;48.690;9.022;2023-09-18T09:00:15;16.57;;;15.50;;
2622;SDS011;1321;48.690;9.022;2023-09-18T09:02:44;15.70;;;15.20;;
2622;SDS011;1321;48.690;9.022;2023-09-18T09:05:15;16.13;;;15.57;;
2622;SDS011;1321;48.690;9.022;2023-09-18T09:07:44;15.90;;;15.40;;
2622;SDS011;1321;48.690;9.022;2023-09-18T09:10:12;16.00;;;15.40;;
2622;SDS011;1321;48.690;9.022;2023-09-18T09:12:46;15.33;;;14.83;;
2622;SDS011;1321;48.690;9.022;2023-09-18T09:15:17;16.33;;;15.60;;
2622;SDS011;1321;48.690;9.022;2023-09-18T09:17:46;16.13;;;15.27;;
2622;SDS011;1321;48.690;9.022;2023-09-18T09:20:15;16.37;;;15.47;;
2622;SDS011;1321;48.690;9.022;2023-09-18T09:22:45;15.80;;;15.40;;
2622;SDS011;1321;48.690;9.022;2023-09-18T09:25:23;16.73;;;15.93;;
2622;SDS011;1321;48.690;9.022;2023-09-18T09:27:53;15.90;;;15.30;;
2622;SDS011;1321;48.690;9.022;2023-09-18T09:30:24;16.67;;;15.97;;
2622;SDS011;1321;48.690;9.022;2023-09-18T09:32:54;15.97;;;15.47;;
2622;SDS011;1321;48.690;9.022;2023-09-18T09:35:24;16.23;;;15.63;;
2622;SDS011;1321;48.690;9.022;2023-09-18T09:37:56;17.30;;;16.40;;
2622;SDS011;1321;48.690;9.022;2023-09-18T09:40:28;16.30;;;15.70;;
2622;SDS011;1321;48.690;9.022;2023-09-18T09:42:57;15.83;;;15.33;;
2622;SDS011;1321;48.690;9.022;2023-09-18T09:45:32;16.27;;;15.67;;
2622;SDS011;1321;48.690;9.022;2023-09-18T09:48:02;16.20;;;15.37;;
2622;SDS011;1321;48.690;9.022;2023-09-18T09:50:34;16.40;;;15.73;;
2622;SDS011;1321;48.690;9.022;2023-09-18T09:53:16;16.63;;;15.73;;
2622;SDS011;1321;48.690;9.022;2023-09-18T09:55:45;16.50;;;15.80;;
2622;SDS011;1321;48.690;9.022;2023-09-18T09:58:21;15.80;;;15.20;;
2622;SDS011;1321;48.690;9.022;2023-09-18T10:00:59;16.97;;;16.27;;
2622;SDS011;1321;48.690;9.022;2023-09-18T10:03:35;15.80;;;15.30;;
2622;SDS011;1321;48.690;9.022;2023-09-18T10:06:05;16.70;;;15.90;;
2622;SDS011;1321;48.690;9.022;2023-09-18T10:08:36;15.90;;;15.20;;
2622;SDS011;1321;48.690;9.022;2023-09-18T10:11:08;15.63;;;15.10;;
2622;SDS011;1321;48.690;9.022;2023-09-18T10:13:39;15.93;;;15.37;;
2622;SDS011;1321;48.690;9.022;2023-09-18T10:16:14;15.87;;;15.27;;
2622;SDS011;1321;48.690;9.022;2023-09-18T10:18:50;16.00;;;15.40;;
2622;SDS011;1321;48.690;9.022;2023-09-18T10:21:29;15.50;;;15.00;;
2622;SDS011;1321;48.690;9.022;2023-09-18T10:24:04;16.10;;;15.50;;
2622;SDS011;1321;48.690;9.022;2023-09-18T10:26:48;15.80;;;15.20;;
2622;SDS011;1321;48.690;9.022;2023-09-18T10:29:22;16.50;;;15.70;;
2622;SDS011;1321;48.690;9.022;2023-09-18T10:31:53;16.13;;;15.53;;
2622;SDS011;1321;48.690;9.022;2023-09-18T10:34:22;16.03;;;15.20;;
2622;SDS011;1321;48.690;9.022;2023-09-18T10:36:52;16.03;;;15.40;;
2622;SDS011;1321;48.690;9.022;2023-09-18T10:39:23;16.07;;;15.47;;
2622;SDS011;1321;48.690;9.022;2023-09-18T10:41:54;15.87;;;15.07;;
2622;SDS011;1321;48.690;9.022;2023-09-18T10:44:23;15.90;;;15.30;;
2622;SDS011;1321;48.690;9.022;2023-09-18T10:46:53;15.80;;;15.10;;
2622;SDS011;1321;48.690;9.022;2023-09-18T10:49:22;15.53;;;15.03;;
2622;SDS011;1321;48.690;9.022;2023-09-18T10:51:53;15.50;;;15.00;;
2622;SDS011;1321;48.690;9.022;2023-09-18T10:54:22;16.30;;;15.50;;
2622;SDS011;1321;48.690;9.022;2023-09-18T10:56:55;16.87;;;15.90;;
2622;SDS011;1321;48.690;9.022;2023-09-18T10:59:24;16.40;;;15.70;;
2622;SDS011;1321;48.690;9.022;2023-09-18T11:01:53;15.30;;;14.80;;
2622;SDS011;1321;48.690;9.022;2023-09-18T11:04:22;16.07;;;15.37;;
2622;SDS011;1321;48.690;9.022;2023-09-18T11:07:00;16.30;;;15.57;;
2622;SDS011;1321;48.690;9.022;2023-09-18T11:09:32;15.97;;;15.23;;
2622;SDS011;1321;48.690;9.022;2023-09-18T11:12:08;15.90;;;15.30;;
2622;SDS011;1321;48.690;9.022;2023-09-18T11:14:44;16.50;;;15.70;;
2622;SDS011;1321;48.690;9.022;2023-09-18T11:17:29;15.93;;;15.40;;
2622;SDS011;1321;48.690;9.022;2023-09-18T11:20:04;16.00;;;15.40;;
2622;SDS011;1321;48.690;9.022;2023-09-18T11:22:36;15.90;;;15.30;;
2622;SDS011;1321;48.690;9.022;2023-09-18T11:28:14;15.97;;;15.40;;
2622;SDS011;1321;48.690;9.022;2023-09-18T11:30:48;15.37;;;14.87;;
2622;SDS011;1321;48.690;9.022;2023-09-18T11:33:30;16.03;;;15.30;;
2622;SDS011;1321;48.690;9.022;2023-09-18T11:36:04;16.23;;;15.47;;
2622;SDS011;1321;48.690;9.022;2023-09-18T11:38:34;15.40;;;14.90;;
2622;SDS011;1321;48.690;9.022;2023-09-18T11:41:23;15.40;;;14.90;;
2622;SDS011;1321;48.690;9.022;2023-09-18T11:43:54;15.77;;;15.20;;
2622;SDS011;1321;48.690;9.022;2023-09-18T11:47:08;16.03;;;15.53;;
2622;SDS011;1321;48.690;9.022;2023-09-18T11:49:50;15.70;;;15.20;;
2622;SDS011;1321;48.690;9.022;2023-09-18T11:52:22;15.50;;;15.00;;
2622;SDS011;1321;48.690;9.022;2023-09-18T11:54:52;15.40;;;14.80;;
2622;SDS011;1321;48.690;9.022;2023-09-18T11:57:21;15.67;;;15.17;;
2622;SDS011;1321;48.690;9.022;2023-09-18T11:59:50;15.90;;;15.30;;
2622;SDS011;1321;48.690;9.022;2023-09-18T12:02:25;15.70;;;15.20;;
2622;SDS011;1321;48.690;9.022;2023-09-18T12:05:09;15.30;;;14.90;;
2622;SDS011;1321;48.690;9.022;2023-09-18T12:07:38;15.27;;;14.80;;
2622;SDS011;1321;48.690;9.022;2023-09-18T12:10:10;15.40;;;14.90;;
2622;SDS011;1321;48.690;9.022;2023-09-18T12:12:39;16.03;;;15.43;;
2622;SDS011;1321;48.690;9.022;2023-09-18T12:15:10;16.00;;;15.43;;
2622;SDS011;1321;48.690;9.022;2023-09-18T12:17:38;15.80;;;15.20;;
2622;SDS011;1321;48.690;9.022;2023-09-18T12:20:14;15.60;;;15.07;;
2622;SDS011;1321;48.690;9.022;2023-09-18T12:22:46;15.90;;;15.20;;
2622;SDS011;1321;48.690;9.022;2023-09-18T12:25:17;15.40;;;15.00;;
2622;SDS011;1321;48.690;9.022;2023-09-18T12:27:45;15.47;;;15.07;;
2622;SDS011;1321;48.690;9.022;2023-09-18T12:30:18;15.23;;;14.73;;
2622;SDS011;1321;48.690;9.022;2023-09-18T12:32:50;15.10;;;14.70;;
2622;SDS011;1321;48.690;9.022;2023-09-18T12:35:20;15.00;;;14.60;;
2622;SDS011;1321;48.690;9.022;2023-09-18T12:37:51;15.60;;;15.10;;
2622;SDS011;1321;48.690;9.022;2023-09-18T12:40:23;15.50;;;15.10;;
2622;SDS011;1321;48.690;9.022;2023-09-18T12:42:53;15.30;;;14.90;;
2622;SDS011;1321;48.690;9.022;2023-09-18T12:45:22;15.37;;;14.90;;
2622;SDS011;1321;48.690;9.022;2023-09-18T12:47:51;15.33;;;14.83;;
2622;SDS011;1321;48.690;9.022;2023-09-18T12:50:23;15.13;;;14.73;;
2622;SDS011;1321;48.690;9.022;2023-09-18T12:52:52;15.30;;;14.80;;
2622;SDS011;1321;48.690;9.022;2023-09-18T12:55:23;15.87;;;15.20;;
2622;SDS011;1321;48.690;9.022;2023-09-18T12:57:54;15.67;;;15.27;;
2622;SDS011;1321;48.690;9.022;2023-09-18T13:00:22;16.07;;;15.40;;
2622;SDS011;1321;48.690;9.022;2023-09-18T13:02:54;15.87;;;15.37;;
2622;SDS011;1321;48.690;9.022;2023-09-18T13:05:24;16.40;;;15.70;;
2622;SDS011;1321;48.690;9.022;2023-09-18T13:07:54;15.80;;;15.30;;
2622;SDS011;1321;48.690;9.022;2023-09-18T13:10:23;15.50;;;15.10;;
2622;SDS011;1321;48.690;9.022;2023-09-18T13:12:54;15.73;;;15.33;;
2622;SDS011;1321;48.690;9.022;2023-09-18T13:15:24;16.33;;;15.53;;
2622;SDS011;1321;48.690;9.022;2023-09-18T13:17:55;16.10;;;15.63;;
2622;SDS011;1321;48.690;9.022;2023-09-18T13:20:26;16.23;;;15.70;;
2622;SDS011;1321;48.690;9.022;2023-09-18T13:22:56;15.63;;;15.13;;
2622;SDS011;1321;48.690;9.022;2023-09-18T13:25:28;16.80;;;15.70;;
2622;SDS011;1321;48.690;9.022;2023-09-18T13:27:58;15.87;;;15.43;;
2622;SDS011;1321;48.690;9.022;2023-09-18T13:30:27;15.60;;;15.10;;
2622;SDS011;1321;48.690;9.022;2023-09-18T13:33:01;15.60;;;15.10;;
2622;SDS011;1321;48.690;9.022;2023-09-18T13:35:34;15.53;;;15.03;;
2622;SDS011;1321;48.690;9.022;2023-09-18T13:38:04;15.73;;;15.20;;
2622;SDS011;1321;48.690;9.022;2023-09-18T13:40:34;15.30;;;14.90;;
2622;SDS011;1321;48.690;9.022;2023-09-18T13:43:03;15.80;;;15.20;;
2622;SDS011;1321;48.690;9.022;2023-09-18T13:45:32;15.73;;;15.23;;
2622;SDS011;1321;48.690;9.022;2023-09-18T13:48:02;15.70;;;15.20;;
2622;SDS011;1321;48.690;9.022;2023-09-18T13:50:31;15.97;;;15.40;;
2622;SDS011;1321;48.690;9.022;2023-09-18T13:53:00;15.50;;;15.10;;
2622;SDS011;1321;48.690;9.022;2023-09-18T13:55:30;15.30;;;14.90;;
2622;SDS011;1321;48.690;9.022;2023-09-18T13:57:58;16.10;;;15.57;;
2622;SDS011;1321;48.690;9.022;2023-09-18T14:00:29;15.90;;;15.40;;
2622;SDS011;1321;48.690;9.022;2023-09-18T14:02:58;15.93;;;15.20;;
2622;SDS011;1321;48.690;9.022;2023-09-18T14:05:29;15.50;;;15.10;;
2622;SDS011;1321;48.690;9.022;2023-09-18T14:08:01;16.00;;;15.50;;
2622;SDS011;1321;48.690;9.022;2023-09-18T14:10:31;15.70;;;15.10;;
2622;SDS011;1321;48.690;9.022;2023-09-18T14:12:59;15.73;;;15.33;;
2622;SDS011;1321;48.690;9.022;2023-09-18T14:15:27;15.77;;;15.27;;
2622;SDS011;1321;48.690;9.022;2023-09-18T14:17:55;15.90;;;15.13;;
2622;SDS011;1321;48.690;9.022;2023-09-18T14:20:24;15.73;;;15.07;;
2622;SDS011;1321;48.690;9.022;2023-09-18T14:22:52;15.40;;;15.00;;
2622;SDS011;1321;48.690;9.022;2023-09-18T14:25:22;16.00;;;15.50;;
2622;SDS011;1321;48.690;9.022;2023-09-18T14:27:50;15.80;;;15.30;;
2622;SDS011;1321;48.690;9.022;2023-09-18T14:30:19;16.20;;;15.40;;
2622;SDS011;1321;48.690;9.022;2023-09-18T14:32:48;15.80;;;15.40;;
2622;SDS011;1321;48.690;9.022;2023-09-18T14:35:17;15.40;;;14.90;;
2622;SDS011;1321;48.690;9.022;2023-09-18T14:37:45;15.07;;;14.67;;
2622;SDS011;1321;48.690;9.022;2023-09-18T14:40:13;15.87;;;15.27;;
2622;SDS011;1321;48.690;9.022;2023-09-18T14:42:45;15.33;;;14.83;;
2622;SDS011;1321;48.690;9.022;2023-09-18T14:45:13;15.70;;;15.20;;
2622;SDS011;1321;48.690;9.022;2023-09-18T14:47:42;15.53;;;15.10;;
2622;SDS011;1321;48.690;9.022;2023-09-18T14:50:11;15.60;;;15.20;;
2622;SDS011;1321;48.690;9.022;2023-09-18T14:52:39;15.90;;;15.40;;
2622;SDS011;1321;48.690;9.022;2023-09-18T14:55:07;15.83;;;15.20;;
2622;SDS011;1321;48.690;9.022;2023-09-18T14:57:39;15.50;;;15.00;;
2622;SDS011;1321;48.690;9.022;2023-09-18T15:00:09;15.90;;;15.20;;
2622;SDS011;1321;48.690;9.022;2023-09-18T15:02:39;15.47;;;15.07;;
2622;SDS011;1321;48.690;9.022;2023-09-18T15:05:08;15.30;;;14.80;;
2622;SDS011;1321;48.690;9.022;2023-09-18T15:07:39;15.23;;;14.73;;
2622;SDS011;1321;48.690;9.022;2023-09-18T15:10:07;15.63;;;15.13;;